createdAt,value
2023-04-01T00:02:23.240Z,18.80
2023-04-01T00:04:49.943Z,18.80
2023-04-01T00:07:16.584Z,18.80
2023-04-01T00:09:43.176Z,18.80
2023-04-01T00:12:09.810Z,18.90
2023-04-01T00:14:37.971Z,18.70
2023-04-01T00:17:04.690Z,18.70
2023-04-01T00:19:32.836Z,18.70
2023-04-01T00:21:59.620Z,18.70
2023-04-01T00:24:26.221Z,18.70
2023-04-01T00:26:52.780Z,18.70
2023-04-01T00:29:19.351Z,18.70
2023-04-01T00:31:46.069Z,18.70
2023-04-01T00:34:13.187Z,18.60
2023-04-01T00:36:39.806Z,18.60
2023-04-01T00:39:06.379Z,18.70
2023-04-01T00:41:32.928Z,18.60
2023-04-01T00:44:19.118Z,18.60
2023-04-01T00:46:46.258Z,18.60
2023-04-01T00:49:13.324Z,18.60
2023-04-01T00:51:41.274Z,18.70
2023-04-01T00:54:08.421Z,18.60
2023-04-01T00:56:37.754Z,18.60
2023-04-01T00:59:09.397Z,18.90
2023-04-01T01:01:36.734Z,18.60
2023-04-01T01:04:03.584Z,18.60
2023-04-01T01:06:48.216Z,18.60
2023-04-01T01:09:14.839Z,18.60
2023-04-01T01:11:44.207Z,18.60
2023-04-01T01:14:18.337Z,18.70
2023-04-01T01:16:46.757Z,18.60
2023-04-01T01:19:32.318Z,18.60
2023-04-01T01:22:01.970Z,18.60
2023-04-01T01:24:37.754Z,18.60
2023-04-01T01:27:10.021Z,18.60
2023-04-01T01:29:55.634Z,18.60
2023-04-01T01:32:25.250Z,18.70
2023-04-01T01:34:56.708Z,18.70
2023-04-01T01:37:24.476Z,18.80
2023-04-01T01:39:56.466Z,18.80
2023-04-01T01:42:24.853Z,18.90
2023-04-01T01:44:52.991Z,19.40
2023-04-01T01:47:20.484Z,18.90
2023-04-01T01:49:47.225Z,18.80
2023-04-01T01:52:13.916Z,18.80
2023-04-01T01:54:54.223Z,18.80
2023-04-01T01:57:24.279Z,18.80
2023-04-01T01:59:53.086Z,18.80
2023-04-01T02:02:20.738Z,18.80
2023-04-01T02:04:47.627Z,18.90
2023-04-01T02:07:21.101Z,19.10
2023-04-01T02:09:48.508Z,18.70
2023-04-01T02:12:16.263Z,18.70
2023-04-01T02:14:52.881Z,18.60
2023-04-01T02:17:20.860Z,18.70
2023-04-01T02:19:56.737Z,18.70
2023-04-01T02:22:25.272Z,18.70
2023-04-01T02:24:54.577Z,18.70
2023-04-01T02:27:21.842Z,19.20
2023-04-01T02:29:48.516Z,18.70
2023-04-01T02:32:15.533Z,18.60
2023-04-01T02:34:42.404Z,18.60
2023-04-01T02:37:08.977Z,18.60
2023-04-01T02:39:35.712Z,18.60
2023-04-01T02:42:02.319Z,18.60
2023-04-01T02:44:28.910Z,18.60
2023-04-01T02:46:55.698Z,18.60
2023-04-01T02:49:22.435Z,18.60
2023-04-01T02:51:49.260Z,18.70
2023-04-01T02:54:16.063Z,18.60
2023-04-01T02:56:42.602Z,18.60
2023-04-01T02:59:09.144Z,18.60
2023-04-01T03:01:35.834Z,18.60
2023-04-01T03:04:02.476Z,18.60
2023-04-01T03:06:29.038Z,18.60
2023-04-01T03:08:55.661Z,18.60
2023-04-01T03:11:22.210Z,18.60
2023-04-01T03:13:49.712Z,18.60
2023-04-01T03:16:16.364Z,18.60
2023-04-01T03:18:42.996Z,18.50
2023-04-01T03:21:13.563Z,18.60
2023-04-01T03:23:40.132Z,18.60
2023-04-01T03:26:06.690Z,18.60
2023-04-01T03:28:33.227Z,18.70
2023-04-01T03:30:59.823Z,18.80
2023-04-01T03:33:26.411Z,18.80
2023-04-01T03:35:53.349Z,18.80
2023-04-01T03:38:20.349Z,18.90
2023-04-01T03:40:46.907Z,18.90
2023-04-01T03:43:13.752Z,18.90
2023-04-01T03:45:50.821Z,18.90
2023-04-01T03:48:18.035Z,18.80
2023-04-01T03:50:45.376Z,18.90
2023-04-01T03:53:12.012Z,18.80
2023-04-01T03:55:38.953Z,18.70
2023-04-01T03:58:06.083Z,18.60
2023-04-01T04:00:32.942Z,18.60
2023-04-01T04:02:59.974Z,18.70
2023-04-01T04:05:27.129Z,19.20
2023-04-01T04:07:54.124Z,18.70
2023-04-01T04:10:20.779Z,18.60
2023-04-01T04:12:47.354Z,18.70
2023-04-01T04:15:13.901Z,18.70
2023-04-01T04:17:40.758Z,19.00
2023-04-01T04:20:07.684Z,18.70
2023-04-01T04:22:34.272Z,18.70
2023-04-01T04:25:01.200Z,19.00
2023-04-01T04:27:27.963Z,18.70
2023-04-01T04:29:54.586Z,18.60
2023-04-01T04:32:21.272Z,18.70
2023-04-01T04:34:47.910Z,18.70
2023-04-01T04:37:14.549Z,18.60
2023-04-01T04:39:41.295Z,18.60
2023-04-01T04:42:07.854Z,18.70
2023-04-01T04:44:34.647Z,18.60
2023-04-01T04:47:01.970Z,18.70
2023-04-01T04:49:28.652Z,18.60
2023-04-01T04:51:55.525Z,18.60
2023-04-01T04:54:22.264Z,18.60
2023-04-01T04:56:49.206Z,18.60
2023-04-01T04:59:15.834Z,18.60
2023-04-01T05:01:42.463Z,18.60
2023-04-01T05:04:09.085Z,18.60
2023-04-01T05:06:35.815Z,18.60
2023-04-01T05:09:02.412Z,18.60
2023-04-01T05:11:29.114Z,18.60
2023-04-01T05:13:55.908Z,18.70
2023-04-01T05:16:22.575Z,18.70
2023-04-01T05:18:49.312Z,18.80
2023-04-01T05:21:16.394Z,18.70
2023-04-01T05:23:43.408Z,18.90
2023-04-01T05:26:11.634Z,19.10
2023-04-01T05:28:39.194Z,19.00
2023-04-01T05:31:06.556Z,19.00
2023-04-01T05:33:33.568Z,19.00
2023-04-01T05:36:06.980Z,18.90
2023-04-01T05:38:33.582Z,18.90
2023-04-01T05:41:01.224Z,18.90
2023-04-01T05:43:27.797Z,18.90
2023-04-01T05:45:54.418Z,18.90
2023-04-01T05:48:21.005Z,18.80
2023-04-01T05:50:47.943Z,18.80
2023-04-01T05:53:14.530Z,19.30
2023-04-01T05:55:41.143Z,19.00
2023-04-01T05:58:07.726Z,18.80
2023-04-01T06:00:34.338Z,19.00
2023-04-01T06:03:01.169Z,18.70
2023-04-01T06:05:31.785Z,18.70
2023-04-01T06:08:00.479Z,18.70
2023-04-01T06:10:39.233Z,18.70
2023-04-01T06:13:10.647Z,18.70
2023-04-01T06:15:53.148Z,18.70
2023-04-01T06:18:28.986Z,18.70
2023-04-01T06:21:05.948Z,18.70
2023-04-01T06:23:35.681Z,18.70
2023-04-01T06:26:18.987Z,18.50
2023-04-01T06:28:48.843Z,18.60
2023-04-01T06:31:33.995Z,18.60
2023-04-01T06:34:07.583Z,18.60
2023-04-01T06:36:40.038Z,18.70
2023-04-01T06:39:11.150Z,18.70
2023-04-01T06:41:55.422Z,18.80
2023-04-01T06:44:34.625Z,18.90
2023-04-01T06:47:16.266Z,18.90
2023-04-01T06:49:52.358Z,18.90
2023-04-01T06:52:23.908Z,18.80
2023-04-01T06:54:53.330Z,18.80
2023-04-01T06:57:29.490Z,18.80
2023-04-01T06:59:59.423Z,18.80
2023-04-01T07:02:28.846Z,18.80
2023-04-01T07:04:56.651Z,18.80
2023-04-01T07:07:42.472Z,18.80
2023-04-01T07:10:20.889Z,18.80
2023-04-01T07:12:49.459Z,18.70
2023-04-01T07:15:25.522Z,18.90
2023-04-01T07:18:02.772Z,18.80
2023-04-01T07:20:37.559Z,18.80
2023-04-01T07:23:07.053Z,18.70
2023-04-01T07:25:39.013Z,18.80
2023-04-01T07:28:07.431Z,18.60
2023-04-01T07:30:41.087Z,18.60
2023-04-01T07:33:16.152Z,18.60
2023-04-01T07:35:55.612Z,18.60
2023-04-01T07:38:30.741Z,18.70
2023-04-01T07:41:06.554Z,18.70
2023-04-01T07:43:51.998Z,18.60
2023-04-01T07:46:34.549Z,18.60
2023-04-01T07:49:01.215Z,18.60
2023-04-01T07:51:27.741Z,18.60
2023-04-01T07:54:14.239Z,18.70
2023-04-01T07:56:48.599Z,18.80
2023-04-01T07:59:32.499Z,18.80
2023-04-01T08:02:14.371Z,18.90
2023-04-01T08:04:43.970Z,18.90
2023-04-01T08:07:14.264Z,18.90
2023-04-01T08:09:45.615Z,18.80
2023-04-01T08:12:22.204Z,18.80
2023-04-01T08:14:48.839Z,18.80
2023-04-01T08:17:29.259Z,18.80
2023-04-01T08:19:59.696Z,18.70
2023-04-01T08:22:30.683Z,18.70
2023-04-01T08:25:00.914Z,18.70
2023-04-01T08:27:38.740Z,18.70
2023-04-01T08:30:11.586Z,18.70
2023-04-01T08:32:42.513Z,18.70
2023-04-01T08:35:18.269Z,18.70
2023-04-01T08:37:46.327Z,18.70
2023-04-01T08:40:29.754Z,18.60
2023-04-01T08:43:06.577Z,18.60
2023-04-01T08:45:50.347Z,18.60
2023-04-01T08:48:36.297Z,18.60
2023-04-01T08:51:12.969Z,18.60
2023-04-01T08:53:58.558Z,18.60
2023-04-01T08:56:32.293Z,18.60
2023-04-01T08:58:58.916Z,18.60
2023-04-01T09:01:44.401Z,18.70
2023-04-01T09:04:18.160Z,18.50
2023-04-01T09:07:19.172Z,18.60
2023-04-01T09:10:04.670Z,18.60
2023-04-01T09:12:31.224Z,18.60
2023-04-01T09:15:08.858Z,18.60
2023-04-01T09:17:54.433Z,18.60
2023-04-01T09:20:40.060Z,18.50
2023-04-01T09:23:26.516Z,18.60
2023-04-01T09:26:11.837Z,18.60
2023-04-01T09:29:04.943Z,18.70
2023-04-01T09:31:37.774Z,18.80
2023-04-01T09:34:22.717Z,18.90
2023-04-01T09:37:02.575Z,18.90
2023-04-01T09:39:37.322Z,19.00
2023-04-01T09:42:27.985Z,19.00
2023-04-01T09:45:02.063Z,19.00
2023-04-01T09:47:51.091Z,18.90
2023-04-01T09:50:23.876Z,18.90
2023-04-01T09:53:11.143Z,18.90
2023-04-01T09:55:56.511Z,18.90
2023-04-01T09:58:23.074Z,18.90
2023-04-01T10:00:55.927Z,18.90
2023-04-01T10:03:33.014Z,18.90
2023-04-01T10:06:21.496Z,18.90
2023-04-01T10:09:06.956Z,18.80
2023-04-01T10:11:33.643Z,18.80
2023-04-01T10:14:19.918Z,18.80
2023-04-01T10:17:05.053Z,18.70
2023-04-01T10:19:50.505Z,18.80
2023-04-01T10:22:20.176Z,18.70
2023-04-01T10:25:06.309Z,18.70
2023-04-01T10:27:33.019Z,18.70
2023-04-01T10:30:27.189Z,18.70
2023-04-01T10:33:16.595Z,18.70
2023-04-01T10:35:46.351Z,18.70
2023-04-01T10:38:26.801Z,18.80
2023-04-01T10:41:00.376Z,18.80
2023-04-01T10:43:39.851Z,19.20
2023-04-01T10:46:17.593Z,19.10
2023-04-01T10:48:53.970Z,19.00
2023-04-01T10:51:32.969Z,19.00
2023-04-01T10:54:18.514Z,19.00
2023-04-01T10:57:04.083Z,19.00
2023-04-01T10:59:39.936Z,18.90
2023-04-01T11:02:12.076Z,18.90
2023-04-01T11:05:14.455Z,18.80
2023-04-01T11:07:41.252Z,18.80
2023-04-01T11:10:10.801Z,18.80
2023-04-01T11:12:55.895Z,18.80
2023-04-01T11:15:22.443Z,18.70
2023-04-01T11:18:00.947Z,18.70
2023-04-01T11:20:51.033Z,18.70
2023-04-01T11:23:36.615Z,18.70
2023-04-01T11:26:12.375Z,18.70
2023-04-01T11:28:54.959Z,18.70
2023-04-01T11:31:21.618Z,18.70
2023-04-01T11:34:07.045Z,18.70
2023-04-01T11:36:42.698Z,18.70
2023-04-01T11:39:15.940Z,18.70
2023-04-01T11:41:47.082Z,18.60
2023-04-01T11:44:28.220Z,18.60
2023-04-01T11:47:04.520Z,18.60
2023-04-01T11:49:49.994Z,18.60
2023-04-01T11:52:26.810Z,18.60
2023-04-01T11:55:02.915Z,18.60
2023-04-01T11:57:44.730Z,18.60
2023-04-01T12:00:14.344Z,18.60
2023-04-01T12:02:52.779Z,18.60
2023-04-01T12:05:32.430Z,18.70
2023-04-01T12:08:11.899Z,18.80
2023-04-01T12:11:02.717Z,18.80
2023-04-01T12:13:29.258Z,18.90
2023-04-01T12:16:14.177Z,18.80
2023-04-01T12:18:43.743Z,18.80
2023-04-01T12:21:22.443Z,18.80
2023-04-01T12:23:49.000Z,18.80
2023-04-01T12:26:22.092Z,18.70
2023-04-01T12:29:07.571Z,18.70
2023-04-01T12:31:45.962Z,18.70
2023-04-01T12:34:30.770Z,18.70
2023-04-01T12:37:11.358Z,18.60
2023-04-01T12:39:56.934Z,18.60
2023-04-01T12:42:32.826Z,18.60
2023-04-01T12:45:19.717Z,18.60
2023-04-01T12:47:46.376Z,18.50
2023-04-01T12:50:31.951Z,18.50
2023-04-01T12:53:06.446Z,18.50
2023-04-01T12:55:33.132Z,18.50
2023-04-01T12:58:21.657Z,18.50
2023-04-01T13:01:03.337Z,18.50
2023-04-01T13:03:38.477Z,18.50
2023-04-01T13:06:21.557Z,18.50
2023-04-01T13:09:02.587Z,18.50
2023-04-01T13:11:37.660Z,18.50
2023-04-01T13:14:25.029Z,18.50
2023-04-01T13:17:01.441Z,18.50
2023-04-01T13:19:37.330Z,18.40
2023-04-01T13:22:18.336Z,18.40
2023-04-01T13:24:54.019Z,18.40
2023-04-01T13:27:20.687Z,18.50
2023-04-01T13:29:59.715Z,18.50
2023-04-01T13:32:46.567Z,18.50
2023-04-01T13:35:36.689Z,18.60
2023-04-01T13:38:09.341Z,18.60
2023-04-01T13:41:02.196Z,18.60
2023-04-01T13:43:39.340Z,18.70
2023-04-01T13:46:11.946Z,18.70
2023-04-01T13:49:05.639Z,18.70
2023-04-01T13:51:37.605Z,18.60
2023-04-01T13:54:22.593Z,18.60
2023-04-01T13:56:49.176Z,18.60
2023-04-01T13:59:18.837Z,18.50
2023-04-01T14:01:51.099Z,18.50
2023-04-01T14:04:31.548Z,18.50
2023-04-01T14:07:09.244Z,18.50
2023-04-01T14:09:51.102Z,18.50
2023-04-01T14:12:29.744Z,18.50
2023-04-01T14:15:04.410Z,18.50
2023-04-01T14:17:47.225Z,18.50
2023-04-01T14:20:29.249Z,18.40
2023-04-01T14:22:55.882Z,18.50
2023-04-01T14:25:39.300Z,18.50
2023-04-01T14:28:09.096Z,18.50
2023-04-01T14:30:38.795Z,18.40
2023-04-01T14:33:12.045Z,18.50
2023-04-01T14:35:43.790Z,18.40
2023-04-01T14:38:26.563Z,18.40
2023-04-01T14:41:12.200Z,18.40
2023-04-01T14:43:47.590Z,18.40
2023-04-01T14:46:32.964Z,18.40
2023-04-01T14:49:05.234Z,18.40
2023-04-01T14:51:38.460Z,18.40
2023-04-01T14:54:24.054Z,18.40
2023-04-01T14:56:52.649Z,18.40
2023-04-01T14:59:22.091Z,18.40
2023-04-01T15:01:49.242Z,18.50
2023-04-01T15:04:18.970Z,18.50
2023-04-01T15:07:04.618Z,18.50
2023-04-01T15:09:47.863Z,18.60
2023-04-01T15:12:22.537Z,18.60
2023-04-01T15:14:58.248Z,18.50
2023-04-01T15:17:43.693Z,18.50
2023-04-01T15:20:11.241Z,18.50
2023-04-01T15:22:40.974Z,18.50
2023-04-01T15:25:07.657Z,18.50
2023-04-01T15:27:44.099Z,18.40
2023-04-01T15:30:30.096Z,18.40
2023-04-01T15:32:56.761Z,18.40
2023-04-01T15:35:42.340Z,18.40
2023-04-01T15:38:25.787Z,18.40
2023-04-01T15:41:03.685Z,18.40
2023-04-01T15:43:49.838Z,18.40
2023-04-01T15:46:35.438Z,18.30
2023-04-01T15:49:11.765Z,18.30
2023-04-01T15:51:58.594Z,18.30
2023-04-01T15:54:46.941Z,18.30
2023-04-01T15:57:13.605Z,18.30
2023-04-01T15:59:55.947Z,18.40
2023-04-01T16:02:41.675Z,18.40
2023-04-01T16:05:11.274Z,18.40
2023-04-01T16:07:40.962Z,18.30
2023-04-01T16:10:18.909Z,18.30
2023-04-01T16:12:51.165Z,18.30
2023-04-01T16:15:23.654Z,18.30
2023-04-01T16:17:53.328Z,18.30
2023-04-01T16:20:21.169Z,18.30
2023-04-01T16:23:02.429Z,18.20
2023-04-01T16:25:30.234Z,18.20
2023-04-01T16:28:09.847Z,18.20
2023-04-01T16:30:43.107Z,18.30
2023-04-01T16:33:13.846Z,18.30
2023-04-01T16:35:43.440Z,18.30
2023-04-01T16:38:27.608Z,18.30
2023-04-01T16:41:01.773Z,18.30
2023-04-01T16:43:48.788Z,18.30
2023-04-01T16:46:15.525Z,18.30
2023-04-01T16:49:03.856Z,18.40
2023-04-01T16:51:35.432Z,18.40
2023-04-01T16:54:27.008Z,18.40
2023-04-01T16:57:02.808Z,18.40
2023-04-01T16:59:36.919Z,18.40
2023-04-01T17:02:10.382Z,18.40
2023-04-01T17:04:59.882Z,18.40
2023-04-01T17:07:37.862Z,18.30
2023-04-01T17:10:17.408Z,18.30
2023-04-01T17:13:12.301Z,18.30
2023-04-01T17:15:56.538Z,18.20
2023-04-01T17:18:26.250Z,18.30
2023-04-01T17:20:59.934Z,18.30
2023-04-01T17:23:30.998Z,18.30
2023-04-01T17:26:03.362Z,18.30
2023-04-01T17:28:37.232Z,18.20
2023-04-01T17:31:11.759Z,18.20
2023-04-01T17:33:44.166Z,18.20
2023-04-01T17:36:29.780Z,18.20
2023-04-01T17:39:19.620Z,18.20
2023-04-01T17:42:01.207Z,18.20
2023-04-01T17:44:27.734Z,18.20
2023-04-01T17:47:03.450Z,18.20
2023-04-01T17:49:30.093Z,18.20
2023-04-01T17:52:02.696Z,18.20
2023-04-01T17:54:51.495Z,18.20
2023-04-01T17:57:27.140Z,18.20
2023-04-01T17:59:59.947Z,18.20
2023-04-01T18:02:43.024Z,18.40
2023-04-01T18:05:13.069Z,18.20
2023-04-01T18:07:46.721Z,18.30
2023-04-01T18:10:18.575Z,18.30
2023-04-01T18:13:11.166Z,18.70
2023-04-01T18:15:47.368Z,18.40
2023-04-01T18:18:17.068Z,18.20
2023-04-01T18:21:01.684Z,18.40
2023-04-01T18:23:42.921Z,18.40
2023-04-01T18:26:38.396Z,18.40
2023-04-01T18:29:19.504Z,18.40
2023-04-01T18:31:52.269Z,18.40
2023-04-01T18:34:38.892Z,18.50
2023-04-01T18:37:25.723Z,18.40
2023-04-01T18:40:01.655Z,18.40
2023-04-01T18:42:47.015Z,18.40
2023-04-01T18:45:19.717Z,18.30
2023-04-01T18:47:49.658Z,18.30
2023-04-01T18:50:37.449Z,18.70
2023-04-01T18:53:22.928Z,18.30
2023-04-01T18:55:49.549Z,18.20
2023-04-01T18:58:34.541Z,18.20
2023-04-01T19:01:13.430Z,18.20
2023-04-01T19:03:44.211Z,18.10
2023-04-01T19:06:32.669Z,17.90
2023-04-01T19:09:10.937Z,18.10
2023-04-01T19:11:50.508Z,18.40
2023-04-01T19:14:17.069Z,18.10
2023-04-01T19:16:51.469Z,18.10
2023-04-01T19:19:22.711Z,18.10
2023-04-01T19:21:55.784Z,18.10
2023-04-01T19:24:38.377Z,18.10
2023-04-01T19:27:27.758Z,18.10
2023-04-01T19:29:55.142Z,18.10
2023-04-01T19:32:21.799Z,18.10
2023-04-01T19:34:54.474Z,18.10
2023-04-01T19:37:34.668Z,18.10
2023-04-01T19:40:16.673Z,18.10
2023-04-01T19:42:43.349Z,18.10
2023-04-01T19:45:10.452Z,18.10
2023-04-01T19:47:40.137Z,18.00
2023-04-01T19:50:21.994Z,18.10
2023-04-01T19:52:49.513Z,18.10
2023-04-01T19:55:35.083Z,18.60
2023-04-01T19:58:09.534Z,18.10
2023-04-01T20:00:39.088Z,18.10
2023-04-01T20:03:10.708Z,18.10
2023-04-01T20:05:37.396Z,18.20
2023-04-01T20:08:22.849Z,18.20
2023-04-01T20:10:57.666Z,18.30
2023-04-01T20:13:48.858Z,18.30
2023-04-01T20:16:16.430Z,18.40
2023-04-01T20:18:50.243Z,18.30
2023-04-01T20:21:20.047Z,18.10
2023-04-01T20:24:01.872Z,18.20
2023-04-01T20:26:36.517Z,18.20
2023-04-01T20:29:16.182Z,18.20
2023-04-01T20:31:45.906Z,18.10
2023-04-01T20:34:19.110Z,18.10
2023-04-01T20:37:04.572Z,18.10
2023-04-01T20:39:35.658Z,18.10
2023-04-01T20:42:22.647Z,18.10
2023-04-01T20:44:58.695Z,18.10
2023-04-01T20:47:25.325Z,17.90
2023-04-01T20:50:01.536Z,18.40
2023-04-01T20:52:33.190Z,18.10
2023-04-01T20:55:17.068Z,18.10
2023-04-01T20:57:43.958Z,18.10
2023-04-01T21:00:19.632Z,18.00
2023-04-01T21:03:03.556Z,18.00
2023-04-01T21:05:35.172Z,18.00
2023-04-01T21:08:21.786Z,18.00
2023-04-01T21:11:11.576Z,17.90
2023-04-01T21:13:38.224Z,18.00
2023-04-01T21:16:23.602Z,18.00
2023-04-01T21:19:09.136Z,17.90
2023-04-01T21:21:58.702Z,18.00
2023-04-01T21:24:25.484Z,17.90
2023-04-01T21:26:57.965Z,17.90
2023-04-01T21:29:39.734Z,17.90
2023-04-01T21:32:25.561Z,17.90
2023-04-01T21:34:55.323Z,18.00
2023-04-01T21:37:34.285Z,18.00
2023-04-01T21:40:19.718Z,18.00
2023-04-01T21:42:49.385Z,17.90
2023-04-01T21:45:24.600Z,18.00
2023-04-01T21:48:06.977Z,17.90
2023-04-01T21:50:40.972Z,17.90
2023-04-01T21:53:13.639Z,18.20
2023-04-01T21:55:58.491Z,17.90
2023-04-01T21:58:25.459Z,17.90
2023-04-01T22:00:58.435Z,17.90
2023-04-01T22:03:27.765Z,17.90
2023-04-01T22:06:10.060Z,17.90
2023-04-01T22:08:36.698Z,17.90
2023-04-01T22:13:45.258Z,17.90
2023-04-01T22:16:26.574Z,17.90
2023-04-01T22:19:10.173Z,17.90
2023-04-01T22:21:42.473Z,17.90
2023-04-01T22:24:24.059Z,17.90
2023-04-01T22:26:53.734Z,17.90
2023-04-01T22:29:32.405Z,17.90
2023-04-01T22:31:58.963Z,17.90
2023-04-01T22:34:33.029Z,17.90
2023-04-01T22:37:18.662Z,17.90
2023-04-01T22:39:56.740Z,17.90
2023-04-01T22:42:35.100Z,17.90
2023-04-01T22:45:13.839Z,17.90
2023-04-01T22:48:05.001Z,17.90
2023-04-01T22:50:41.710Z,17.90
2023-04-01T22:53:08.299Z,17.90
2023-04-01T22:55:37.027Z,17.90
2023-04-01T22:58:05.664Z,18.00
2023-04-01T23:00:37.245Z,18.10
2023-04-01T23:03:20.016Z,18.20
2023-04-01T23:05:57.421Z,18.10
2023-04-01T23:08:42.315Z,18.10
2023-04-01T23:11:27.383Z,18.10
2023-04-01T23:13:58.887Z,18.00
2023-04-01T23:16:54.600Z,18.00
2023-04-01T23:19:27.826Z,18.00
2023-04-01T23:22:07.314Z,18.00
2023-04-01T23:24:37.396Z,18.00
2023-04-01T23:27:09.146Z,18.00
2023-04-01T23:29:37.130Z,17.90
2023-04-01T23:32:04.949Z,17.90
2023-04-01T23:34:35.831Z,17.90
2023-04-01T23:37:06.901Z,17.90
2023-04-01T23:39:38.407Z,17.90
2023-04-01T23:42:06.597Z,17.90
2023-04-01T23:44:34.438Z,17.90
2023-04-01T23:47:02.104Z,17.90
2023-04-01T23:49:31.290Z,17.90
2023-04-01T23:52:00.279Z,17.90
2023-04-01T23:54:49.808Z,17.90
2023-04-01T23:57:19.124Z,17.90
2023-04-01T23:59:59.770Z,17.90
